Flight Track Log - Related Links

Times and Time Zones

All times are in EDT time to prevent confusion due to time zone crossing. See the ASQ5861 flight status page for this flight to view local times or setup timezone preferences in your user account.

Time Position Orientation Groundspeed Altitude Reporting Facility
EDT Latitude Longitude Course Direction KTS MPH feet Rate Location/Type
Mon 06:54:47 PM 49.9333 -97.2333 147° Southeast 170 196 3,200  Level Winnipeg Center
Mon 06:55:47 PM 49.9667 -97.1500 58° Northeast 220 253 6,300 2,900 Climbing Winnipeg Center
Mon 06:56:47 PM 49.9167 -97.1167 157° South 240 276 9,000 2,250 Climbing Winnipeg Center
Mon 06:57:47 PM 49.8333 -97.1167 180° South 280 322 10,800 2,250 Climbing Winnipeg Center
Mon 06:58:47 PM 49.7500 -97.0667 159° South 310 357 13,500 2,450 Climbing Winnipeg Center
Mon 06:59:00 PM 49.4646 -96.7963 150° Southeast  Level FlightAware Approximate
Mon 06:59:47 PM 49.6833 -97.0167 154° Southeast 320 368 15,700  Level Winnipeg Center
Mon 07:00:00 PM 49.3743 -96.7076 147° Southeast  Level FlightAware Approximate
Mon 07:00:47 PM 49.6000 -96.9333 147° Southeast 320 368 17,800  Level Winnipeg Center
Mon 07:01:47 PM 49.5333 -96.8667 147° Southeast 320 368 19,900 2,000 Climbing Winnipeg Center
Mon 07:02:47 PM 49.4500 -96.7833 147° Southeast 340 391 21,800 2,000 Climbing Winnipeg Center
Mon 07:03:47 PM 49.3667 -96.7167 152° Southeast 340 391 23,900 2,000 Climbing Winnipeg Center
Mon 07:04:47 PM 49.3000 -96.6333 141° Southeast 340 391 25,800 2,000 Climbing Winnipeg Center
Mon 07:05:47 PM 49.2167 -96.5500 147° Southeast 340 391 27,900 2,000 Climbing Winnipeg Center
Mon 07:06:47 PM 49.1333 -96.4833 152° Southeast 330 380 29,800 2,000 Climbing Winnipeg Center
Mon 07:07:47 PM 49.0333 -96.4000 151° Southeast 330 380 31,900 1,600 Climbing Winnipeg Center
Mon 07:08:47 PM 48.9667 -96.3333 147° Southeast 330 380 33,000 550 Climbing Winnipeg Center
Mon 07:09:47 PM 48.8833 -96.2500 147° Southeast 360 414 33,000  Level Winnipeg Center
Mon 07:10:47 PM 48.7833 -96.1500 147° Southeast 390 449 33,000  Level Winnipeg Center
Mon 07:11:47 PM 48.6833 -96.0833 156° South 400 460 33,000  Level Winnipeg Center
Mon 07:12:19 PM 48.6628 -96.0444 129° Southeast 405 466 33,000 -638 Level Minneapolis Center
Mon 07:13:21 PM 48.5700 -95.9606 149° Southeast 396 456 32,000 -882 Descending Minneapolis Center
Mon 07:14:35 PM 48.4825 -95.8797 149° Southeast 379 436 31,000 -441 Descending Minneapolis Center
Mon 07:15:37 PM 48.3722 -95.8108 157° South 363 418 31,000  Level Minneapolis Center
Mon 07:16:38 PM 48.2744 -95.7917 173° South 355 409 31,000  Level Minneapolis Center
Mon 07:17:40 PM 48.1553 -95.7692 173° South 357 411 31,000  Level Minneapolis Center
Mon 07:18:41 PM 48.0750 -95.7533 172° South 361 415 31,000  Level Minneapolis Center
Mon 07:19:43 PM 47.9572 -95.7303 173° South 359 413 31,000  Level Minneapolis Center
Mon 07:20:45 PM 47.8600 -95.7108 172° South 355 409 31,000  Level Minneapolis Center
Mon 07:21:47 PM 47.7622 -95.6936 173° South 354 407 31,000  Level Minneapolis Center
Mon 07:22:49 PM 47.6647 -95.6764 173° South 353 406 31,000  Level Minneapolis Center
Mon 07:23:50 PM 47.5678 -95.6597 173° South 351 404 31,000  Level Minneapolis Center
Mon 07:24:52 PM 47.4686 -95.6417 173° South 349 402 31,000  Level Minneapolis Center
Mon 07:25:54 PM 47.3708 -95.6250 173° South 353 406 31,000  Level Minneapolis Center
Mon 07:26:55 PM 47.2622 -95.5408 152° Southeast 388 447 31,000  Level Minneapolis Center
Mon 07:27:57 PM 47.1750 -95.4469 144° Southeast 392 451 31,000  Level Minneapolis Center
Mon 07:28:59 PM 47.0881 -95.3536 144° Southeast 389 448 31,000  Level Minneapolis Center
Mon 07:30:01 PM 47.0008 -95.2606 144° Southeast 389 448 31,000  Level Minneapolis Center
Mon 07:31:03 PM 46.9119 -95.1672 144° Southeast 394 453 31,000  Level Minneapolis Center
Mon 07:32:04 PM 46.8233 -95.0733 144° Southeast 395 455 31,000  Level Minneapolis Center
Mon 07:33:06 PM 46.7175 -94.9611 144° Southeast 395 455 31,000  Level Minneapolis Center
Mon 07:34:08 PM 46.6278 -94.8686 145° Southeast 395 455 31,000  Level Minneapolis Center
Mon 07:35:10 PM 46.5369 -94.7750 145° Southeast 400 460 31,000  Level Minneapolis Center
Mon 07:36:12 PM 46.4461 -94.6808 144° Southeast 402 463 31,000  Level Minneapolis Center
Mon 07:37:14 PM 46.3558 -94.5878 145° Southeast 401 461 31,000  Level Minneapolis Center
Mon 07:38:16 PM 46.2653 -94.4939 144° Southeast 402 463 31,000  Level Minneapolis Center
Mon 07:39:17 PM 46.1789 -94.4056 145° Southeast 401 461 31,000  Level Minneapolis Center
Mon 07:40:19 PM 46.0700 -94.2944 145° Southeast 401 461 31,000  Level Minneapolis Center
Mon 07:41:33 PM 45.9783 -94.2014 145° Southeast 403 464 31,000  Level Minneapolis Center
Mon 07:42:35 PM 45.8681 -94.0906 145° Southeast 404 465 31,000  Level Minneapolis Center
Mon 07:43:37 PM 45.7572 -93.9789 145° Southeast 407 468 31,000  Level Minneapolis Center
Mon 07:44:51 PM 45.6653 -93.8858 145° Southeast 407 468 31,000  Level Minneapolis Center
Mon 07:45:53 PM 45.5531 -93.7736 145° Southeast 409 471 31,000  Level Minneapolis Center
Mon 07:46:55 PM 45.4603 -93.6811 145° Southeast 410 472 31,000  Level Minneapolis Center
Mon 07:47:57 PM 45.3811 -93.5608 133° Southeast 422 486 31,000  Level Minneapolis Center
Mon 07:48:59 PM 45.3106 -93.4217 126° Southeast 433 498 31,000  Level Minneapolis Center
Mon 07:50:01 PM 45.2275 -93.2547 125° Southeast 432 497 31,000  Level Minneapolis Center
Mon 07:51:03 PM 45.1578 -93.1136 125° Southeast 434 499 31,000  Level Minneapolis Center
Mon 07:52:04 PM 45.0861 -92.9728 126° Southeast 437 503 31,000  Level Minneapolis Center
Mon 07:53:06 PM 45.0164 -92.8308 125° Southeast 436 502 31,000  Level Minneapolis Center
Mon 07:54:08 PM 44.9450 -92.6911 126° Southeast 437 503 31,000  Level Minneapolis Center
Mon 07:55:10 PM 44.8731 -92.5500 126° Southeast 439 505 31,000  Level Minneapolis Center
Mon 07:56:12 PM 44.8000 -92.4089 126° Southeast 443 510 31,000  Level Minneapolis Center
Mon 07:57:14 PM 44.7281 -92.2686 126° Southeast 443 510 31,000  Level Minneapolis Center
Mon 07:58:16 PM 44.6411 -92.1003 126° Southeast 444 511 31,000  Level Minneapolis Center
Mon 07:59:18 PM 44.5681 -91.9603 126° Southeast 446 513 31,000  Level Minneapolis Center
Mon 08:00:20 PM 44.4961 -91.8197 126° Southeast 445 512 31,000  Level Minneapolis Center
Mon 08:01:21 PM 44.4225 -91.6800 126° Southeast 446 513 31,000  Level Minneapolis Center
Mon 08:02:23 PM 44.3489 -91.5419 127° Southeast 445 512 31,000  Level Minneapolis Center
Mon 08:03:25 PM 44.2753 -91.4025 126° Southeast 447 514 31,000  Level Minneapolis Center
Mon 08:04:27 PM 44.1919 -91.2442 126° Southeast 446 513 31,000  Level Minneapolis Center
Mon 08:05:29 PM 44.1194 -91.1075 126° Southeast 443 510 31,000  Level Minneapolis Center
Mon 08:06:31 PM 44.0458 -90.9703 127° Southeast 444 511 31,000  Level Minneapolis Center
Mon 08:07:33 PM 43.9728 -90.8356 127° Southeast 441 507 31,000  Level Minneapolis Center
Mon 08:08:34 PM 43.8997 -90.6997 127° Southeast 441 507 31,000  Level Minneapolis Center
Mon 08:09:36 PM 43.8139 -90.5425 127° Southeast 439 505 31,000 -629 Level Minneapolis Center
Mon 08:10:38 PM 43.7394 -90.4050 127° Southeast 439 505 29,700 -1,306 Descending Minneapolis Center
Mon 08:11:40 PM 43.6700 -90.2775 127° Southeast 423 487 28,300 -1,113 Descending Minneapolis Center
Mon 08:12:42 PM 43.6003 -90.1522 128° Southeast 419 482 27,400 -1,016 Descending Minneapolis Center
Mon 08:13:44 PM 43.5156 -89.9972 127° Southeast 429 494 26,200 -1,024 Descending Minneapolis Center
Mon 08:14:45 PM 43.4411 -89.8644 128° Southeast 435 501 25,300 -940 Descending Minneapolis Center
Mon 08:15:58 PM 43.3567 -89.7164 128° Southeast 424 488 24,100 -1,200 Descending Chicago Center
Mon 08:17:00 PM 43.2850 -89.5889 128° Southeast 423 487 22,600 -1,707 Descending Chicago Center
Mon 08:18:01 PM 43.2125 -89.4619 128° Southeast 423 487 20,600 -2,098 Descending Chicago Center
Mon 08:19:03 PM 43.1231 -89.3367 134° Southeast 402 463 18,300 -2,032 Descending Chicago Center
Mon 08:20:05 PM 43.0225 -89.2911 162° South 385 443 16,400 -1,790 Descending Chicago Center
Mon 08:21:07 PM 42.9236 -89.2511 163° South 375 432 14,600 -1,548 Descending Chicago Center
Mon 08:22:09 PM 42.8278 -89.2139 164° South 361 415 13,200 -976 Descending Chicago Center
Mon 08:23:10 PM 42.7356 -89.1756 163° South 349 402 12,600 -732 Descending Chicago Center
Mon 08:24:12 PM 42.6544 -89.1431 164° South 309 356 11,700 -774 Descending Chicago Center
Mon 08:25:14 PM 42.5581 -89.1056 164° South 308 354 11,000 -339 Descending Chicago Center
Mon 08:26:16 PM 42.4767 -89.0742 164° South 305 351 11,000  Level Chicago Center
Mon 08:27:18 PM 42.3956 -89.0414 163° South 304 350 11,000  Level Chicago Center
Mon 08:28:19 PM 42.3669 -88.9428 111° Southeast 302 348 11,000  Level Chicago Center
Mon 08:29:21 PM 42.3686 -88.8278 89° East 305 351 11,000 -387 Level Chicago Center
Mon 08:30:23 PM 42.3708 -88.7136 88° East 304 350 10,200 -871 Descending Chicago Center
Mon 08:31:25 PM 42.3733 -88.5833 88° East 298 343 9,200 -581 Descending Chicago Center
Mon 08:32:27 PM 42.3700 -88.4750 92° East 293 337 9,000 -195 Descending Chicago Center
Mon 08:33:28 PM 42.3503 -88.3678 104° East 295 339 8,800 -488 Descending Chicago Center
Mon 08:34:30 PM 42.3158 -88.2936 122° Southeast 269 310 8,000 -677 Descending Chicago Center
Mon 08:35:32 PM 42.2458 -88.2261 144° Southeast 259 298 7,400 -677 Descending Chicago Center
Mon 08:36:34 PM 42.1931 -88.1633 139° Southeast 255 293 6,600 -1,210 Descending Chicago Center
Mon 08:37:36 PM 42.1403 -88.1042 140° Southeast 250 288 4,900 -1,800 Descending Chicago Center
Mon 08:38:14 PM 42.1000 -88.0667 145° Southeast 237 273 3,600 -1,469 Descending Chicago TRACON
Mon 08:39:14 PM 42.0667 -88.0167 132° Southeast 209 241 2,500 -950 Descending Chicago TRACON
Mon 08:40:14 PM 42.0333 -87.9833 143° Southeast 125 144 1,700 -800 Descending Chicago TRACON
Mon 08:42:00 PM 41.9817 -87.9067 143° Southeast  Level Estimated
Mon 08:49:00 PM 41.9817 -87.9067 143° Southeast  Level Estimated

Login

Don't have an account? Register now (free) for customized features, flight alerts, and more!